createdAt,value
2023-05-05T00:00:15.646Z,13.50
2023-05-05T00:02:42.517Z,13.52
2023-05-05T00:05:09.300Z,13.56
2023-05-05T00:07:36.011Z,13.54
2023-05-05T00:10:02.786Z,13.54
2023-05-05T00:12:29.264Z,13.52
2023-05-05T00:14:55.903Z,13.48
2023-05-05T00:17:23.013Z,13.45
2023-05-05T00:19:49.623Z,13.42
2023-05-05T00:22:16.022Z,13.40
2023-05-05T00:24:42.888Z,13.34
2023-05-05T00:27:10.617Z,13.34
2023-05-05T00:29:37.016Z,13.35
2023-05-05T00:32:03.524Z,13.37
2023-05-05T00:34:29.963Z,13.36
2023-05-05T00:36:56.372Z,13.37
2023-05-05T00:39:22.871Z,13.37
2023-05-05T00:41:49.312Z,13.39
2023-05-05T00:44:15.782Z,13.39
2023-05-05T00:46:43.117Z,13.36
2023-05-05T00:49:09.971Z,13.36
2023-05-05T00:51:36.509Z,13.32
2023-05-05T00:54:02.998Z,13.27
2023-05-05T00:56:29.702Z,13.24
2023-05-05T00:58:56.395Z,13.21
2023-05-05T01:01:23.040Z,13.19
2023-05-05T01:03:49.575Z,13.20
2023-05-05T01:06:22.688Z,13.19
2023-05-05T01:08:54.996Z,13.21
2023-05-05T01:11:31.058Z,13.23
2023-05-05T01:14:16.629Z,13.25
2023-05-05T01:16:57.334Z,13.31
2023-05-05T01:19:58.782Z,13.45
2023-05-05T01:22:32.312Z,13.49
2023-05-05T01:25:17.816Z,13.50
2023-05-05T01:27:59.335Z,13.55
2023-05-05T01:30:49.944Z,13.59
2023-05-05T01:33:23.168Z,13.61
2023-05-05T01:35:56.630Z,13.63
2023-05-05T01:38:38.037Z,13.65
2023-05-05T01:41:12.944Z,13.66
2023-05-05T01:43:41.284Z,13.67
2023-05-05T01:46:08.605Z,13.69
2023-05-05T01:48:36.974Z,13.70
2023-05-05T01:51:04.891Z,13.72
2023-05-05T01:53:32.506Z,13.78
2023-05-05T01:55:59.562Z,13.77
2023-05-05T01:58:28.144Z,13.79
2023-05-05T02:00:57.060Z,13.80
2023-05-05T02:03:24.769Z,13.79
2023-05-05T02:05:53.804Z,13.80
2023-05-05T02:08:21.404Z,13.83
2023-05-05T02:10:49.774Z,13.85
2023-05-05T02:13:18.629Z,13.88
2023-05-05T02:15:46.360Z,13.88
2023-05-05T02:18:14.191Z,13.90
2023-05-05T02:20:41.080Z,13.98
2023-05-05T02:23:08.205Z,14.00
2023-05-05T02:25:43.318Z,14.06
2023-05-05T02:28:15.318Z,14.08
2023-05-05T02:30:43.421Z,14.03
2023-05-05T02:33:14.279Z,13.97
2023-05-05T02:35:42.252Z,13.90
2023-05-05T02:38:17.412Z,13.86
2023-05-05T02:40:45.747Z,13.83
2023-05-05T02:43:17.060Z,13.78
2023-05-05T02:45:43.869Z,13.71
2023-05-05T02:48:12.909Z,13.63
2023-05-05T02:50:39.371Z,13.56
2023-05-05T02:53:05.916Z,13.48
2023-05-05T02:55:50.262Z,13.39
2023-05-05T02:58:42.516Z,13.33
2023-05-05T03:01:15.501Z,13.25
2023-05-05T03:03:52.278Z,13.18
2023-05-05T03:06:22.091Z,13.08
2023-05-05T03:08:57.426Z,12.99
2023-05-05T03:11:47.716Z,12.93
2023-05-05T03:14:18.300Z,12.84
2023-05-05T03:16:46.286Z,12.76
2023-05-05T03:19:15.780Z,12.72
2023-05-05T03:21:42.384Z,12.67
2023-05-05T03:24:26.957Z,12.60
2023-05-05T03:26:53.773Z,12.55
2023-05-05T03:29:20.229Z,12.48
2023-05-05T03:31:46.808Z,12.44
2023-05-05T03:34:13.616Z,12.39
2023-05-05T03:36:40.556Z,12.35
2023-05-05T03:39:07.212Z,12.31
2023-05-05T03:41:34.113Z,12.22
2023-05-05T03:44:01.405Z,12.16
2023-05-05T03:46:27.887Z,12.14
2023-05-05T03:48:57.005Z,12.12
2023-05-05T03:51:24.502Z,12.10
2023-05-05T03:53:50.931Z,12.07
2023-05-05T03:56:17.333Z,12.04
2023-05-05T03:58:43.706Z,12.01
2023-05-05T04:01:10.150Z,12.02
2023-05-05T04:03:36.670Z,12.01
2023-05-05T04:06:03.242Z,12.01
2023-05-05T04:08:29.676Z,12.06
2023-05-05T04:10:57.383Z,12.12
2023-05-05T04:13:24.196Z,12.17
2023-05-05T04:15:50.986Z,12.19
2023-05-05T04:18:17.395Z,12.20
2023-05-05T04:20:43.935Z,12.24
2023-05-05T04:23:10.364Z,12.27
2023-05-05T04:25:37.145Z,12.30
2023-05-05T04:28:03.614Z,12.30
2023-05-05T04:30:30.616Z,12.33
2023-05-05T04:32:57.066Z,12.50
2023-05-05T04:35:23.593Z,13.07
2023-05-05T04:37:50.132Z,13.90
2023-05-05T04:40:16.660Z,14.84
2023-05-05T04:42:43.119Z,15.45
2023-05-05T04:45:10.179Z,15.34
2023-05-05T04:47:40.115Z,15.00
2023-05-05T04:50:08.058Z,14.85
2023-05-05T04:52:34.904Z,14.75
2023-05-05T04:55:01.398Z,14.79
2023-05-05T04:57:29.434Z,14.92
2023-05-05T04:59:55.979Z,15.17
2023-05-05T05:02:22.427Z,15.50
2023-05-05T05:04:48.890Z,15.99
2023-05-05T05:07:15.285Z,16.87
2023-05-05T05:09:41.809Z,17.20
2023-05-05T05:12:09.647Z,17.97
2023-05-05T05:14:40.156Z,18.90
2023-05-05T05:17:06.917Z,19.40
2023-05-05T05:19:33.400Z,19.63
2023-05-05T05:21:59.925Z,20.39
2023-05-05T05:24:26.459Z,21.78
2023-05-05T05:26:52.917Z,22.95
2023-05-05T05:29:20.354Z,24.04
2023-05-05T05:31:46.768Z,24.73
2023-05-05T05:34:15.433Z,25.36
2023-05-05T05:36:41.835Z,25.77
2023-05-05T05:39:08.350Z,26.17
2023-05-05T05:41:34.798Z,26.38
2023-05-05T05:44:01.197Z,26.61
2023-05-05T05:46:27.661Z,27.10
2023-05-05T05:48:54.110Z,27.44
2023-05-05T05:51:20.562Z,27.46
2023-05-05T05:53:47.044Z,27.39
2023-05-05T05:56:13.575Z,27.43
2023-05-05T05:58:40.571Z,27.46
2023-05-05T06:01:07.078Z,27.99
2023-05-05T06:03:33.541Z,28.26
2023-05-05T06:06:00.039Z,28.07
2023-05-05T06:08:26.845Z,28.24
2023-05-05T06:10:53.318Z,28.27
2023-05-05T06:13:19.851Z,28.74
2023-05-05T06:15:46.338Z,28.65
2023-05-05T06:18:12.837Z,28.49
2023-05-05T06:20:39.372Z,28.77
2023-05-05T06:23:05.986Z,29.22
2023-05-05T06:25:32.387Z,29.27
2023-05-05T06:27:58.807Z,28.89
2023-05-05T06:30:26.238Z,28.85
2023-05-05T06:32:54.257Z,28.95
2023-05-05T06:35:22.395Z,29.09
2023-05-05T06:37:48.792Z,29.04
2023-05-05T06:40:15.220Z,28.70
2023-05-05T06:42:41.842Z,28.55
2023-05-05T06:45:08.876Z,28.72
2023-05-05T06:47:36.014Z,28.78
2023-05-05T06:50:02.459Z,28.74
2023-05-05T06:52:28.861Z,28.42
2023-05-05T06:54:55.418Z,28.81
2023-05-05T06:57:21.851Z,28.93
2023-05-05T06:59:48.381Z,28.64
2023-05-05T07:02:15.185Z,28.84
2023-05-05T07:04:41.605Z,28.98
2023-05-05T07:07:08.072Z,29.15
2023-05-05T07:09:34.500Z,28.87
2023-05-05T07:12:00.994Z,29.16
2023-05-05T07:14:27.897Z,29.15
2023-05-05T07:16:54.463Z,28.40
2023-05-05T07:19:20.990Z,27.16
2023-05-05T07:21:47.703Z,27.49
2023-05-05T07:24:14.176Z,27.23
2023-05-05T07:26:40.839Z,27.24
2023-05-05T07:29:07.277Z,26.83
2023-05-05T07:31:33.887Z,26.07
2023-05-05T07:34:00.343Z,26.04
2023-05-05T07:36:27.883Z,27.02
2023-05-05T07:38:54.795Z,27.29
2023-05-05T07:41:21.281Z,27.26
2023-05-05T07:43:47.944Z,27.19
2023-05-05T07:46:14.806Z,27.76
2023-05-05T07:48:41.894Z,27.82
2023-05-05T07:51:09.261Z,28.07
2023-05-05T07:53:35.757Z,27.43
2023-05-05T07:56:02.456Z,26.59
2023-05-05T07:58:28.892Z,26.36
2023-05-05T08:00:55.644Z,26.07
2023-05-05T08:03:24.514Z,25.64
2023-05-05T08:05:54.066Z,24.50
2023-05-05T08:08:24.313Z,24.24
2023-05-05T08:10:51.849Z,24.26
2023-05-05T08:13:18.314Z,23.99
2023-05-05T08:15:45.332Z,24.03
2023-05-05T08:18:11.810Z,23.90
2023-05-05T08:20:38.383Z,23.96
2023-05-05T08:23:05.217Z,24.00
2023-05-05T08:25:31.701Z,23.85
2023-05-05T08:27:58.122Z,23.20
2023-05-05T08:30:24.559Z,23.31
2023-05-05T08:32:51.081Z,23.09
2023-05-05T08:35:17.776Z,22.49
2023-05-05T08:37:44.286Z,22.56
2023-05-05T08:40:14.399Z,22.83
2023-05-05T08:42:42.024Z,22.63
2023-05-05T08:45:11.523Z,22.36
2023-05-05T08:47:39.214Z,22.39
2023-05-05T08:50:06.267Z,22.39
2023-05-05T08:52:40.260Z,22.33
2023-05-05T08:55:24.056Z,22.28
2023-05-05T08:57:58.221Z,22.28
2023-05-05T09:00:26.961Z,22.09
2023-05-05T09:02:57.462Z,21.78
2023-05-05T09:05:24.857Z,21.55
2023-05-05T09:07:52.135Z,21.67
2023-05-05T09:10:18.992Z,21.84
2023-05-05T09:12:45.600Z,21.81
2023-05-05T09:15:14.337Z,21.72
2023-05-05T09:17:41.750Z,21.63
2023-05-05T09:20:10.319Z,21.62
2023-05-05T09:22:42.132Z,21.51
2023-05-05T09:25:11.054Z,21.31
2023-05-05T09:27:42.871Z,21.28
2023-05-05T09:30:12.739Z,21.31
2023-05-05T09:32:51.381Z,21.34
2023-05-05T09:35:19.492Z,21.54
2023-05-05T09:37:46.357Z,21.77
2023-05-05T09:40:15.208Z,21.73
2023-05-05T09:42:41.635Z,21.73
2023-05-05T09:45:27.529Z,21.53
2023-05-05T09:47:59.190Z,21.51
2023-05-05T09:50:30.320Z,21.33
2023-05-05T09:53:03.058Z,21.26
2023-05-05T09:55:31.296Z,21.14
2023-05-05T09:58:16.640Z,21.13
2023-05-05T10:00:43.215Z,21.03
2023-05-05T10:03:09.690Z,20.92
2023-05-05T10:05:50.700Z,20.72
2023-05-05T10:08:19.484Z,20.52
2023-05-05T10:11:06.691Z,20.42
2023-05-05T10:13:37.710Z,20.38
2023-05-05T10:16:08.312Z,20.20
2023-05-05T10:18:35.605Z,19.54
2023-05-05T10:21:04.169Z,18.81
2023-05-05T10:23:57.864Z,18.20
2023-05-05T10:26:27.512Z,17.58
2023-05-05T10:29:01.597Z,17.23
2023-05-05T10:31:45.509Z,16.64
2023-05-05T10:34:37.949Z,16.36
2023-05-05T10:37:06.681Z,16.32
2023-05-05T10:39:36.592Z,16.24
2023-05-05T10:42:03.449Z,16.21
2023-05-05T10:44:32.406Z,16.30
2023-05-05T10:47:00.248Z,16.35
2023-05-05T10:49:40.634Z,16.31
2023-05-05T10:52:17.333Z,16.09
2023-05-05T10:55:09.210Z,15.81
2023-05-05T10:57:40.456Z,15.64
2023-05-05T11:00:08.793Z,15.58
2023-05-05T11:02:36.199Z,15.46
2023-05-05T11:05:18.073Z,15.34
2023-05-05T11:07:46.357Z,15.24
2023-05-05T11:10:15.063Z,15.08
2023-05-05T11:12:54.024Z,14.99
2023-05-05T11:15:29.977Z,14.88
2023-05-05T11:17:57.394Z,14.83
2023-05-05T11:20:36.757Z,14.82
2023-05-05T11:23:03.260Z,14.82
2023-05-05T11:25:40.569Z,14.79
2023-05-05T11:28:17.281Z,14.76
2023-05-05T11:30:55.935Z,14.77
2023-05-05T11:33:36.991Z,14.79
2023-05-05T11:36:08.606Z,14.81
2023-05-05T11:38:40.781Z,14.73
2023-05-05T11:41:10.182Z,14.69
2023-05-05T11:43:36.650Z,14.71
2023-05-05T11:46:13.055Z,14.71
2023-05-05T11:48:54.520Z,14.73
2023-05-05T11:51:22.144Z,14.70
2023-05-05T11:53:49.871Z,14.70
2023-05-05T11:56:21.834Z,14.65
2023-05-05T11:58:49.619Z,14.66
2023-05-05T12:01:16.657Z,14.65
2023-05-05T12:03:45.321Z,14.65
2023-05-05T12:06:13.137Z,14.64
2023-05-05T12:08:40.779Z,14.65
2023-05-05T12:11:09.301Z,14.63
2023-05-05T12:13:35.733Z,14.59
2023-05-05T12:16:12.759Z,14.60
2023-05-05T12:18:39.876Z,14.61
2023-05-05T12:21:19.520Z,14.67
2023-05-05T12:23:46.425Z,14.69
2023-05-05T12:26:34.916Z,14.70
2023-05-05T12:29:01.610Z,14.74
2023-05-05T12:31:37.340Z,14.79
2023-05-05T12:34:04.837Z,14.75
2023-05-05T12:36:33.653Z,14.75
2023-05-05T12:39:00.412Z,14.73
2023-05-05T12:41:27.172Z,14.72
2023-05-05T12:43:58.466Z,14.71
2023-05-05T12:46:32.195Z,14.71
2023-05-05T12:49:06.520Z,14.75
2023-05-05T12:51:34.395Z,14.78
2023-05-05T12:54:08.087Z,14.89
2023-05-05T12:56:45.908Z,14.97
2023-05-05T12:59:29.247Z,15.02
2023-05-05T13:01:57.398Z,15.06
2023-05-05T13:04:25.793Z,15.04
2023-05-05T13:07:09.934Z,15.05
2023-05-05T13:09:36.790Z,15.05
2023-05-05T13:12:04.379Z,15.01
2023-05-05T13:14:34.847Z,15.01
2023-05-05T13:17:01.298Z,15.05
2023-05-05T13:19:27.789Z,15.09
2023-05-05T13:21:55.398Z,14.96
2023-05-05T13:24:34.307Z,14.91
2023-05-05T13:27:09.313Z,14.91
2023-05-05T13:29:35.822Z,14.92
2023-05-05T13:32:02.261Z,14.91
2023-05-05T13:34:29.102Z,14.92
2023-05-05T13:36:56.285Z,14.92
2023-05-05T13:39:22.805Z,14.94
2023-05-05T13:41:49.386Z,14.92
2023-05-05T13:44:15.994Z,14.89
2023-05-05T13:46:42.945Z,14.82
2023-05-05T13:49:09.406Z,14.77
2023-05-05T13:51:36.890Z,14.71
2023-05-05T13:54:03.928Z,14.65
2023-05-05T13:56:30.475Z,14.59
2023-05-05T13:58:57.303Z,14.54
2023-05-05T14:01:23.808Z,14.55
2023-05-05T14:03:50.561Z,14.52
2023-05-05T14:06:17.120Z,14.47
2023-05-05T14:08:43.584Z,14.47
2023-05-05T14:11:10.100Z,14.42
2023-05-05T14:13:36.629Z,14.41
2023-05-05T14:16:03.048Z,14.44
2023-05-05T14:18:29.690Z,14.47
2023-05-05T14:20:56.203Z,14.56
2023-05-05T14:23:22.679Z,14.63
2023-05-05T14:25:49.125Z,14.75
2023-05-05T14:28:16.072Z,14.88
2023-05-05T14:30:42.486Z,14.89
2023-05-05T14:33:08.933Z,14.93
2023-05-05T14:35:35.469Z,14.93
2023-05-05T14:38:01.876Z,14.90
2023-05-05T14:40:29.477Z,14.90
2023-05-05T14:42:55.949Z,14.81
2023-05-05T14:45:22.424Z,14.70
2023-05-05T14:47:48.952Z,14.48
2023-05-05T14:50:15.709Z,14.31
2023-05-05T14:52:44.435Z,14.29
2023-05-05T14:55:11.499Z,14.41
2023-05-05T14:57:38.847Z,15.01
2023-05-05T15:00:06.900Z,15.47
2023-05-05T15:05:00.286Z,15.64
2023-05-05T15:07:28.738Z,15.78
2023-05-05T15:09:58.701Z,15.73
2023-05-05T15:12:26.222Z,15.77
2023-05-05T15:14:52.751Z,15.72
2023-05-05T15:17:19.305Z,15.71
2023-05-05T15:19:46.130Z,15.72
2023-05-05T15:22:12.536Z,15.65
2023-05-05T15:24:39.036Z,15.70
2023-05-05T15:27:05.493Z,15.75
2023-05-05T15:29:32.241Z,15.81
2023-05-05T15:31:58.791Z,15.83
2023-05-05T15:34:26.168Z,15.93
2023-05-05T15:36:52.708Z,15.85
2023-05-05T15:39:19.250Z,15.89
2023-05-05T15:41:45.648Z,16.15
2023-05-05T15:44:12.543Z,16.27
2023-05-05T15:46:39.729Z,16.37
2023-05-05T15:49:06.297Z,16.43
2023-05-05T15:51:32.747Z,16.42
2023-05-05T15:53:59.570Z,16.36
2023-05-05T15:56:27.518Z,16.35
2023-05-05T15:58:54.348Z,16.36
2023-05-05T16:01:21.016Z,16.36
2023-05-05T16:03:47.512Z,16.27
2023-05-05T16:06:14.010Z,16.19
2023-05-05T16:08:41.093Z,16.21
2023-05-05T16:11:07.585Z,16.17
2023-05-05T16:13:34.058Z,16.29
2023-05-05T16:16:00.465Z,16.36
2023-05-05T16:18:26.918Z,16.42
2023-05-05T16:20:53.308Z,16.52
2023-05-05T16:23:19.874Z,16.82
2023-05-05T16:25:46.421Z,17.18
2023-05-05T16:28:12.964Z,17.28
2023-05-05T16:30:39.909Z,17.36
2023-05-05T16:33:06.840Z,17.43
2023-05-05T16:35:33.423Z,17.63
2023-05-05T16:37:59.871Z,17.82
2023-05-05T16:40:26.576Z,17.96
2023-05-05T16:42:53.003Z,17.95
2023-05-05T16:45:19.445Z,18.06
2023-05-05T16:47:45.902Z,18.25
2023-05-05T16:50:12.394Z,18.23
2023-05-05T16:52:38.788Z,18.15
2023-05-05T16:55:05.484Z,18.18
2023-05-05T16:57:32.007Z,18.15
2023-05-05T16:59:58.499Z,18.11
2023-05-05T17:02:24.953Z,18.13
2023-05-05T17:04:51.399Z,18.02
2023-05-05T17:07:17.778Z,17.92
2023-05-05T17:09:44.916Z,17.83
2023-05-05T17:12:11.400Z,17.79
2023-05-05T17:14:38.422Z,17.56
2023-05-05T17:17:05.083Z,17.45
2023-05-05T17:19:31.587Z,17.40
2023-05-05T17:21:57.997Z,17.36
2023-05-05T17:24:24.399Z,17.31
2023-05-05T17:26:50.954Z,17.13
2023-05-05T17:29:21.490Z,17.08
2023-05-05T17:31:48.030Z,17.03
2023-05-05T17:34:14.413Z,16.96
2023-05-05T17:36:41.169Z,16.81
2023-05-05T17:39:07.927Z,16.73
2023-05-05T17:41:34.455Z,16.68
2023-05-05T17:44:00.826Z,16.61
2023-05-05T17:46:27.797Z,16.60
2023-05-05T17:48:54.870Z,16.57
2023-05-05T17:51:21.676Z,16.50
2023-05-05T17:53:48.079Z,16.50
2023-05-05T17:56:14.459Z,16.42
2023-05-05T17:58:41.268Z,16.38
2023-05-05T18:01:07.814Z,16.32
2023-05-05T18:03:34.406Z,16.19
2023-05-05T18:06:02.256Z,16.12
2023-05-05T18:08:28.739Z,16.01
2023-05-05T18:10:55.168Z,15.94
2023-05-05T18:13:21.766Z,15.90
2023-05-05T18:15:48.216Z,15.85
2023-05-05T18:18:14.719Z,15.77
2023-05-05T18:20:41.188Z,15.71
2023-05-05T18:23:07.570Z,15.67
2023-05-05T18:25:33.964Z,15.60
2023-05-05T18:28:00.435Z,15.50
2023-05-05T18:30:26.864Z,15.43
2023-05-05T18:32:53.340Z,15.40
2023-05-05T18:35:19.837Z,15.34
2023-05-05T18:37:46.255Z,15.21
2023-05-05T18:40:12.970Z,15.12
2023-05-05T18:42:39.468Z,15.03
2023-05-05T18:45:06.501Z,14.96
2023-05-05T18:47:33.785Z,14.84
2023-05-05T18:50:00.220Z,14.80
2023-05-05T18:52:27.392Z,14.72
2023-05-05T18:54:53.809Z,14.67
2023-05-05T18:57:20.188Z,14.50
2023-05-05T18:59:46.635Z,14.41
2023-05-05T19:02:13.292Z,14.34
2023-05-05T19:04:41.314Z,14.26
2023-05-05T19:07:07.821Z,14.21
2023-05-05T19:09:34.399Z,14.12
2023-05-05T19:12:02.365Z,14.00
2023-05-05T19:14:28.888Z,13.89
2023-05-05T19:17:01.652Z,13.77
2023-05-05T19:19:28.132Z,13.69
2023-05-05T19:21:54.862Z,13.56
2023-05-05T19:24:21.348Z,13.43
2023-05-05T19:26:47.738Z,13.39
2023-05-05T19:29:14.303Z,13.31
2023-05-05T19:31:40.704Z,13.27
2023-05-05T19:34:07.470Z,13.19
2023-05-05T19:36:34.641Z,13.15
2023-05-05T19:39:02.279Z,13.07
2023-05-05T19:41:29.898Z,13.02
2023-05-05T19:43:57.307Z,12.97
2023-05-05T19:46:26.313Z,12.92
2023-05-05T19:48:52.962Z,12.86
2023-05-05T19:51:19.497Z,12.78
2023-05-05T19:53:45.960Z,12.70
2023-05-05T19:56:12.396Z,12.65
2023-05-05T19:59:01.678Z,12.61
2023-05-05T20:01:29.402Z,12.57
2023-05-05T20:03:56.546Z,12.53
2023-05-05T20:06:24.234Z,12.48
2023-05-05T20:08:50.879Z,12.43
2023-05-05T20:11:17.654Z,12.33
2023-05-05T20:13:44.226Z,12.19
2023-05-05T20:16:10.779Z,12.14
2023-05-05T20:18:37.255Z,12.04
2023-05-05T20:21:03.716Z,12.01
2023-05-05T20:23:30.390Z,11.95
2023-05-05T20:25:57.227Z,11.88
2023-05-05T20:28:23.853Z,11.81
2023-05-05T20:30:50.276Z,11.78
2023-05-05T20:33:16.648Z,11.73
2023-05-05T20:35:43.126Z,11.74
2023-05-05T20:38:10.086Z,11.72
2023-05-05T20:40:36.838Z,11.70
2023-05-05T20:43:03.277Z,11.66
2023-05-05T20:45:31.664Z,11.60
2023-05-05T20:48:00.013Z,11.57
2023-05-05T20:50:26.602Z,11.55
2023-05-05T20:52:53.020Z,11.50
2023-05-05T20:55:19.586Z,11.47
2023-05-05T20:57:46.289Z,11.40
2023-05-05T21:00:12.963Z,11.34
2023-05-05T21:02:39.497Z,11.31
2023-05-05T21:05:06.501Z,11.26
2023-05-05T21:07:35.949Z,11.18
2023-05-05T21:10:03.695Z,11.14
2023-05-05T21:12:30.669Z,11.10
2023-05-05T21:14:58.744Z,11.07
2023-05-05T21:17:26.281Z,11.03
2023-05-05T21:19:53.224Z,11.00
2023-05-05T21:22:20.733Z,10.96
2023-05-05T21:24:47.389Z,10.91
2023-05-05T21:27:13.924Z,10.84
2023-05-05T21:29:40.812Z,10.80
2023-05-05T21:32:08.664Z,10.77
2023-05-05T21:34:35.525Z,10.73
2023-05-05T21:37:02.284Z,10.69
2023-05-05T21:39:30.545Z,10.67
2023-05-05T21:41:57.018Z,10.65
2023-05-05T21:44:25.405Z,10.66
2023-05-05T21:46:55.517Z,10.65
2023-05-05T21:49:21.987Z,10.65
2023-05-05T21:51:48.742Z,10.63
2023-05-05T21:54:15.443Z,10.56
2023-05-05T21:56:41.855Z,10.51
2023-05-05T21:59:08.291Z,10.45
2023-05-05T22:01:35.086Z,10.41
2023-05-05T22:04:01.685Z,10.39
2023-05-05T22:06:28.149Z,10.38
2023-05-05T22:08:54.674Z,10.35
2023-05-05T22:11:21.312Z,10.28
2023-05-05T22:13:47.809Z,10.23
2023-05-05T22:16:18.609Z,10.20
2023-05-05T22:18:46.111Z,10.19
2023-05-05T22:21:12.649Z,10.17
2023-05-05T22:23:41.380Z,10.14
2023-05-05T22:26:08.738Z,10.13
2023-05-05T22:28:35.399Z,10.18
2023-05-05T22:31:02.511Z,10.26
2023-05-05T22:33:29.010Z,10.31
2023-05-05T22:35:55.724Z,10.30
2023-05-05T22:38:22.252Z,10.25
2023-05-05T22:40:48.743Z,10.20
2023-05-05T22:43:15.367Z,10.15
2023-05-05T22:45:42.997Z,10.12
2023-05-05T22:48:09.541Z,10.14
2023-05-05T22:50:36.076Z,10.18
2023-05-05T22:53:02.463Z,10.20
2023-05-05T22:55:28.923Z,10.24
2023-05-05T22:57:55.421Z,10.27
2023-05-05T23:00:21.912Z,10.29
2023-05-05T23:02:48.448Z,10.29
2023-05-05T23:05:14.909Z,10.33
2023-05-05T23:07:41.303Z,10.33
2023-05-05T23:10:08.745Z,10.36
2023-05-05T23:12:35.578Z,10.40
2023-05-05T23:15:02.201Z,10.40
2023-05-05T23:17:28.695Z,10.35
2023-05-05T23:19:55.154Z,10.30
2023-05-05T23:22:21.522Z,10.30
2023-05-05T23:24:48.025Z,10.31
2023-05-05T23:27:14.416Z,10.32
2023-05-05T23:29:40.818Z,10.31
2023-05-05T23:32:07.711Z,10.28
2023-05-05T23:34:34.078Z,10.28
2023-05-05T23:37:00.497Z,10.27
2023-05-05T23:39:26.899Z,10.25
2023-05-05T23:41:53.298Z,10.22
2023-05-05T23:44:19.743Z,10.22
2023-05-05T23:46:46.521Z,10.22
2023-05-05T23:49:13.010Z,10.22
2023-05-05T23:51:39.391Z,10.23
2023-05-05T23:54:05.940Z,10.24
2023-05-05T23:56:32.426Z,10.24
2023-05-05T23:58:58.851Z,10.24
